createdAt,value
2023-02-24T00:01:52.491Z,14.57
2023-02-24T00:04:21.652Z,15.10
2023-02-24T00:06:51.801Z,13.07
2023-02-24T00:09:21.406Z,13.43
2023-02-24T00:11:54.282Z,16.90
2023-02-24T00:14:22.603Z,16.43
2023-02-24T00:16:50.434Z,14.13
2023-02-24T00:19:20.044Z,15.27
2023-02-24T00:21:48.165Z,13.30
2023-02-24T00:24:17.344Z,15.13
2023-02-24T00:26:45.910Z,15.93
2023-02-24T00:29:14.360Z,15.40
2023-02-24T00:31:43.231Z,12.23
2023-02-24T00:34:12.795Z,13.40
2023-02-24T00:36:41.654Z,16.07
2023-02-24T00:39:10.589Z,14.50
2023-02-24T00:41:41.621Z,11.93
2023-02-24T00:44:11.605Z,13.17
2023-02-24T00:46:41.341Z,12.57
2023-02-24T00:49:12.639Z,14.90
2023-02-24T00:51:42.581Z,15.03
2023-02-24T00:54:14.772Z,12.90
2023-02-24T00:56:45.200Z,13.47
2023-02-24T00:59:14.678Z,16.57
2023-02-24T01:01:44.184Z,11.80
2023-02-24T01:04:13.124Z,12.27
2023-02-24T01:06:43.355Z,12.27
2023-02-24T01:09:13.250Z,13.03
2023-02-24T01:11:59.394Z,12.07
2023-02-24T01:14:30.271Z,10.53
2023-02-24T01:16:58.543Z,11.80
2023-02-24T01:19:31.305Z,9.87
2023-02-24T01:21:59.229Z,11.87
2023-02-24T01:24:27.316Z,13.63
2023-02-24T01:26:55.453Z,9.17
2023-02-24T01:29:25.949Z,8.87
2023-02-24T01:31:57.981Z,10.70
2023-02-24T01:34:26.784Z,11.00
2023-02-24T01:36:55.199Z,10.70
2023-02-24T01:39:23.143Z,10.83
2023-02-24T01:41:52.936Z,10.33
2023-02-24T01:44:56.945Z,11.07
2023-02-24T01:47:30.893Z,11.20
2023-02-24T01:49:58.831Z,14.27
2023-02-24T01:52:31.083Z,15.63
2023-02-24T01:55:07.381Z,13.17
2023-02-24T01:57:38.626Z,13.13
2023-02-24T02:00:12.278Z,11.17
2023-02-24T02:02:47.403Z,12.07
2023-02-24T02:05:16.154Z,13.00
2023-02-24T02:07:46.004Z,13.80
2023-02-24T02:10:14.493Z,11.53
2023-02-24T02:12:45.548Z,11.93
2023-02-24T02:15:16.791Z,11.87
2023-02-24T02:17:56.616Z,11.47
2023-02-24T02:20:56.854Z,13.67
2023-02-24T02:24:00.867Z,11.33
2023-02-24T02:26:53.656Z,12.83
2023-02-24T02:29:59.725Z,13.33
2023-02-24T02:32:55.312Z,9.83
2023-02-24T02:35:28.423Z,11.57
2023-02-24T02:38:06.934Z,12.00
2023-02-24T02:40:41.412Z,9.67
2023-02-24T02:43:17.318Z,11.77
2023-02-24T02:45:48.963Z,11.57
2023-02-24T02:48:20.307Z,12.10
2023-02-24T02:50:54.898Z,11.03
2023-02-24T02:53:30.206Z,10.33
2023-02-24T02:56:02.319Z,10.50
2023-02-24T02:58:32.109Z,8.90
2023-02-24T03:01:03.557Z,10.70
2023-02-24T03:03:35.370Z,10.50
2023-02-24T03:06:07.456Z,9.17
2023-02-24T03:08:39.984Z,9.00
2023-02-24T03:11:14.003Z,10.13
2023-02-24T03:13:46.435Z,10.33
2023-02-24T03:16:17.320Z,11.37
2023-02-24T03:18:51.115Z,10.63
2023-02-24T03:21:28.643Z,12.87
2023-02-24T03:23:56.736Z,8.93
2023-02-24T03:26:29.051Z,11.57
2023-02-24T03:29:03.728Z,10.83
2023-02-24T03:31:39.184Z,9.50
2023-02-24T03:34:10.599Z,12.63
2023-02-24T03:36:39.808Z,12.63
2023-02-24T03:39:11.398Z,10.43
2023-02-24T03:41:46.654Z,16.47
2023-02-24T03:44:14.806Z,10.10
2023-02-24T03:46:43.011Z,11.90
2023-02-24T03:49:16.513Z,9.80
2023-02-24T03:51:56.955Z,10.57
2023-02-24T03:54:42.842Z,11.17
2023-02-24T03:57:23.025Z,10.50
2023-02-24T04:00:19.728Z,9.13
2023-02-24T04:02:49.606Z,9.73
2023-02-24T04:05:24.675Z,9.53
2023-02-24T04:07:59.585Z,15.00
2023-02-24T04:10:32.833Z,10.97
2023-02-24T04:13:07.350Z,10.27
2023-02-24T04:15:39.715Z,10.37
2023-02-24T04:18:14.243Z,9.50
2023-02-24T04:20:43.748Z,10.90
2023-02-24T04:23:16.676Z,10.77
2023-02-24T04:25:46.459Z,12.23
2023-02-24T04:28:18.758Z,9.30
2023-02-24T04:30:50.815Z,10.17
2023-02-24T04:33:19.457Z,12.30
2023-02-24T04:35:50.420Z,13.03
2023-02-24T04:38:20.191Z,10.13
2023-02-24T04:40:49.667Z,10.27
2023-02-24T04:43:17.894Z,10.90
2023-02-24T04:45:45.931Z,11.70
2023-02-24T04:48:14.199Z,10.80
2023-02-24T04:50:44.542Z,9.53
2023-02-24T04:53:14.852Z,7.17
2023-02-24T04:55:48.627Z,10.53
2023-02-24T04:58:20.554Z,9.57
2023-02-24T05:00:52.489Z,8.67
2023-02-24T05:03:21.664Z,9.17
2023-02-24T05:05:51.838Z,9.20
2023-02-24T05:08:20.677Z,9.70
2023-02-24T05:10:50.210Z,9.63
2023-02-24T05:13:20.178Z,11.57
2023-02-24T05:15:49.705Z,13.73
2023-02-24T05:18:19.087Z,12.43
2023-02-24T05:21:08.495Z,12.83
2023-02-24T05:23:39.152Z,12.33
2023-02-24T05:26:10.296Z,13.57
2023-02-24T05:28:40.504Z,12.87
2023-02-24T05:31:09.848Z,37.03
2023-02-24T05:33:38.895Z,16.63
2023-02-24T05:36:09.844Z,18.43
2023-02-24T05:38:38.516Z,16.83
2023-02-24T05:41:14.978Z,14.40
2023-02-24T05:43:47.999Z,20.50
2023-02-24T05:46:16.327Z,15.17
2023-02-24T05:48:44.529Z,13.37
2023-02-24T05:51:12.600Z,12.37
2023-02-24T05:53:42.278Z,18.80
2023-02-24T05:56:12.089Z,14.33
2023-02-24T05:58:40.168Z,18.43
2023-02-24T06:01:16.128Z,14.20
2023-02-24T06:03:47.722Z,16.53
2023-02-24T06:06:16.297Z,17.57
2023-02-24T06:08:49.846Z,13.73
2023-02-24T06:11:21.417Z,20.13
2023-02-24T06:13:49.572Z,16.23
2023-02-24T06:16:19.060Z,17.80
2023-02-24T06:18:50.470Z,31.53
2023-02-24T06:21:19.131Z,15.67
2023-02-24T06:23:47.185Z,19.43
2023-02-24T06:26:19.224Z,16.40
2023-02-24T06:28:49.804Z,21.07
2023-02-24T06:31:17.670Z,15.87
2023-02-24T06:33:45.501Z,20.37
2023-02-24T06:36:14.234Z,18.07
2023-02-24T06:38:42.595Z,26.00
2023-02-24T06:41:11.703Z,22.27
2023-02-24T06:43:40.269Z,28.63
2023-02-24T06:46:09.916Z,25.63
2023-02-24T06:48:37.968Z,26.93
2023-02-24T06:51:06.591Z,39.90
2023-02-24T06:53:35.934Z,31.43
2023-02-24T06:56:14.755Z,26.57
2023-02-24T06:58:44.979Z,46.13
2023-02-24T07:01:16.326Z,54.20
2023-02-24T07:04:02.960Z,34.27
2023-02-24T07:06:34.212Z,46.87
2023-02-24T07:09:05.931Z,20.97
2023-02-24T07:11:35.076Z,23.57
2023-02-24T07:14:05.588Z,26.93
2023-02-24T07:16:35.763Z,25.93
2023-02-24T07:19:09.568Z,19.17
2023-02-24T07:21:39.791Z,28.87
2023-02-24T07:24:08.790Z,23.13
2023-02-24T07:26:41.798Z,58.50
2023-02-24T07:29:11.313Z,25.80
2023-02-24T07:31:42.725Z,18.87
2023-02-24T07:34:14.878Z,19.63
2023-02-24T07:36:49.178Z,20.27
2023-02-24T07:39:18.798Z,32.13
2023-02-24T07:41:49.445Z,25.70
2023-02-24T07:44:18.653Z,21.40
2023-02-24T07:46:48.904Z,25.37
2023-02-24T07:49:19.683Z,19.50
2023-02-24T07:51:52.291Z,24.50
2023-02-24T07:54:21.034Z,25.83
2023-02-24T07:56:56.414Z,22.23
2023-02-24T07:59:25.710Z,22.33
2023-02-24T08:01:56.031Z,17.93
2023-02-24T08:04:26.710Z,21.17
2023-02-24T08:07:02.357Z,21.23
2023-02-24T08:09:49.685Z,31.13
2023-02-24T08:12:21.101Z,27.60
2023-02-24T08:14:51.629Z,23.90
2023-02-24T08:17:22.710Z,23.40
2023-02-24T08:20:08.415Z,38.73
2023-02-24T08:22:37.261Z,51.70
2023-02-24T08:25:06.592Z,26.00
2023-02-24T08:27:38.937Z,44.50
2023-02-24T08:30:09.269Z,39.63
2023-02-24T08:32:43.547Z,33.00
2023-02-24T08:35:15.294Z,39.77
2023-02-24T08:37:47.069Z,38.43
2023-02-24T08:40:37.893Z,30.77
2023-02-24T08:43:16.885Z,31.13
2023-02-24T08:45:45.892Z,23.07
2023-02-24T08:48:32.162Z,22.93
2023-02-24T08:51:04.523Z,24.87
2023-02-24T08:53:32.401Z,25.90
2023-02-24T08:56:09.363Z,25.50
2023-02-24T08:58:40.899Z,19.67
2023-02-24T09:01:18.951Z,26.40
2023-02-24T09:03:50.130Z,50.93
2023-02-24T09:06:25.496Z,18.67
2023-02-24T09:09:17.070Z,13.93
2023-02-24T09:11:46.363Z,13.50
2023-02-24T09:14:26.430Z,17.43
2023-02-24T09:17:07.050Z,14.70
2023-02-24T09:19:56.675Z,16.97
2023-02-24T09:22:57.039Z,15.73
2023-02-24T09:25:40.333Z,18.30
2023-02-24T09:28:16.869Z,15.77
2023-02-24T09:30:53.368Z,19.13
2023-02-24T09:33:23.881Z,21.33
2023-02-24T09:36:09.329Z,14.67
2023-02-24T09:38:56.405Z,13.70
2023-02-24T09:41:53.145Z,15.20
2023-02-24T09:44:27.851Z,11.83
2023-02-24T09:47:00.007Z,14.40
2023-02-24T09:49:39.867Z,15.00
2023-02-24T09:52:16.993Z,12.00
2023-02-24T09:55:14.504Z,13.33
2023-02-24T09:58:17.930Z,12.23
2023-02-24T10:00:55.644Z,46.23
2023-02-24T10:03:42.618Z,16.57
2023-02-24T10:06:20.473Z,32.17
2023-02-24T10:08:56.828Z,17.27
2023-02-24T10:11:33.726Z,15.00
2023-02-24T10:14:06.314Z,16.07
2023-02-24T10:16:43.455Z,22.43
2023-02-24T10:19:27.840Z,14.43
2023-02-24T10:22:03.962Z,16.07
2023-02-24T10:24:37.986Z,13.77
2023-02-24T10:27:18.457Z,15.00
2023-02-24T10:30:01.130Z,11.17
2023-02-24T10:32:41.203Z,13.03
2023-02-24T10:35:16.530Z,12.70
2023-02-24T10:37:44.801Z,14.83
2023-02-24T10:40:24.753Z,11.03
2023-02-24T10:43:03.786Z,16.07
2023-02-24T10:45:34.694Z,15.87
2023-02-24T10:48:08.955Z,14.93
2023-02-24T10:50:55.298Z,19.47
2023-02-24T10:53:34.539Z,13.70
2023-02-24T10:56:26.696Z,18.33
2023-02-24T10:59:20.531Z,13.20
2023-02-24T11:01:59.216Z,15.83
2023-02-24T11:04:54.256Z,14.23
2023-02-24T11:07:25.469Z,14.83
2023-02-24T11:10:12.075Z,17.80
2023-02-24T11:13:10.033Z,13.63
2023-02-24T11:16:00.804Z,14.33
2023-02-24T11:18:30.108Z,13.73
2023-02-24T11:21:01.313Z,15.17
2023-02-24T11:23:34.905Z,15.03
2023-02-24T11:26:07.614Z,15.30
2023-02-24T11:28:48.850Z,17.27
2023-02-24T11:31:32.371Z,17.37
2023-02-24T11:34:07.911Z,13.10
2023-02-24T11:36:45.968Z,14.83
2023-02-24T11:39:34.857Z,12.77
2023-02-24T11:42:09.318Z,14.70
2023-02-24T11:44:46.987Z,13.73
2023-02-24T11:47:18.078Z,11.90
2023-02-24T11:49:50.914Z,15.77
2023-02-24T11:52:21.847Z,15.27
2023-02-24T11:54:53.809Z,16.20
2023-02-24T11:57:29.168Z,14.93
2023-02-24T12:00:13.262Z,17.00
2023-02-24T12:02:48.276Z,15.57
2023-02-24T12:05:18.748Z,11.23
2023-02-24T12:07:52.062Z,16.97
2023-02-24T12:10:24.335Z,14.97
2023-02-24T12:13:02.037Z,15.77
2023-02-24T12:15:34.533Z,15.57
2023-02-24T12:18:13.644Z,20.40
2023-02-24T12:20:48.505Z,15.70
2023-02-24T12:23:23.284Z,20.50
2023-02-24T12:26:08.769Z,18.73
2023-02-24T12:29:04.143Z,13.80
2023-02-24T12:31:42.071Z,14.73
2023-02-24T12:34:15.438Z,14.80
2023-02-24T12:36:56.758Z,10.47
2023-02-24T12:39:31.731Z,16.03
2023-02-24T12:42:08.497Z,15.17
2023-02-24T12:44:45.272Z,14.33
2023-02-24T12:47:16.906Z,10.63
2023-02-24T12:50:01.563Z,8.97
2023-02-24T12:52:40.040Z,12.57
2023-02-24T12:55:18.772Z,16.10
2023-02-24T12:57:55.959Z,11.03
2023-02-24T13:00:31.498Z,13.23
2023-02-24T13:03:15.026Z,13.63
2023-02-24T13:05:47.185Z,17.97
2023-02-24T13:08:25.284Z,13.20
2023-02-24T13:11:04.629Z,14.53
2023-02-24T13:13:38.253Z,12.97
2023-02-24T13:16:06.344Z,14.73
2023-02-24T13:18:39.426Z,11.73
2023-02-24T13:21:10.220Z,9.93
2023-02-24T13:23:41.550Z,13.40
2023-02-24T13:26:10.320Z,13.73
2023-02-24T13:28:38.988Z,18.13
2023-02-24T13:31:10.537Z,13.17
2023-02-24T13:33:40.832Z,12.60
2023-02-24T13:36:13.620Z,14.47
2023-02-24T13:38:43.717Z,11.83
2023-02-24T13:41:38.197Z,11.93
2023-02-24T13:44:23.583Z,13.47
2023-02-24T13:47:16.661Z,15.60
2023-02-24T13:49:56.005Z,17.13
2023-02-24T13:52:40.736Z,11.83
2023-02-24T13:55:26.178Z,14.67
2023-02-24T13:58:06.288Z,10.97
2023-02-24T14:00:48.454Z,14.07
2023-02-24T14:03:21.451Z,10.83
2023-02-24T14:05:52.332Z,14.20
2023-02-24T14:08:22.889Z,13.13
2023-02-24T14:10:56.010Z,13.67
2023-02-24T14:13:27.907Z,13.23
2023-02-24T14:15:56.450Z,11.23
2023-02-24T14:18:27.343Z,14.30
2023-02-24T14:20:59.161Z,11.53
2023-02-24T14:23:28.734Z,12.10
2023-02-24T14:25:59.492Z,13.73
2023-02-24T14:28:31.378Z,10.60
2023-02-24T14:31:03.168Z,35.20
2023-02-24T14:33:33.204Z,10.93
2023-02-24T14:36:04.685Z,14.63
2023-02-24T14:38:35.563Z,12.80
2023-02-24T14:41:05.742Z,11.83
2023-02-24T14:43:33.618Z,12.73
2023-02-24T14:46:06.707Z,18.83
2023-02-24T14:48:34.809Z,12.07
2023-02-24T14:51:09.730Z,12.80
2023-02-24T14:53:43.346Z,12.07
2023-02-24T14:56:13.289Z,11.17
2023-02-24T14:58:45.782Z,14.73
2023-02-24T15:01:21.887Z,13.70
2023-02-24T15:03:53.319Z,9.90
2023-02-24T15:06:25.863Z,14.17
2023-02-24T15:08:59.186Z,14.10
2023-02-24T15:11:29.783Z,12.47
2023-02-24T15:14:00.784Z,14.13
2023-02-24T15:16:34.628Z,11.33
2023-02-24T15:19:02.957Z,13.00
2023-02-24T15:21:33.524Z,11.53
2023-02-24T15:24:03.557Z,13.40
2023-02-24T15:26:34.352Z,20.53
2023-02-24T15:29:04.507Z,13.97
2023-02-24T15:31:32.625Z,9.23
2023-02-24T15:34:03.622Z,12.63
2023-02-24T15:36:35.492Z,12.17
2023-02-24T15:39:07.558Z,10.57
2023-02-24T15:41:43.888Z,13.73
2023-02-24T15:44:26.292Z,9.67
2023-02-24T15:46:54.647Z,13.37
2023-02-24T15:49:22.551Z,15.23
2023-02-24T15:51:53.299Z,10.77
2023-02-24T15:54:26.432Z,9.53
2023-02-24T15:56:54.262Z,11.70
2023-02-24T15:59:22.443Z,16.17
2023-02-24T16:01:51.821Z,12.63
2023-02-24T16:04:19.869Z,11.33
2023-02-24T16:06:55.210Z,13.30
2023-02-24T16:09:30.275Z,12.97
2023-02-24T16:11:58.164Z,11.60
2023-02-24T16:14:26.543Z,13.80
2023-02-24T16:16:54.471Z,14.20
2023-02-24T16:19:22.417Z,13.13
2023-02-24T16:21:51.600Z,11.17
2023-02-24T16:24:21.467Z,12.50
2023-02-24T16:26:49.571Z,12.90
2023-02-24T16:29:17.319Z,15.87
2023-02-24T16:31:45.294Z,13.43
2023-02-24T16:34:18.940Z,12.80
2023-02-24T16:36:47.587Z,21.40
2023-02-24T16:39:16.764Z,12.27
2023-02-24T16:41:44.591Z,18.23
2023-02-24T16:44:12.379Z,11.13
2023-02-24T16:46:41.545Z,12.53
2023-02-24T16:49:11.067Z,12.93
2023-02-24T16:51:39.090Z,18.83
2023-02-24T16:54:06.961Z,16.50
2023-02-24T16:56:36.078Z,12.67
2023-02-24T16:59:03.877Z,13.17
2023-02-24T17:01:32.201Z,11.27
2023-02-24T17:04:00.179Z,12.87
2023-02-24T17:06:29.154Z,12.60
2023-02-24T17:08:56.996Z,13.93
2023-02-24T17:11:26.957Z,12.67
2023-02-24T17:13:56.067Z,13.97
2023-02-24T17:16:24.281Z,14.97
2023-02-24T17:18:52.343Z,15.73
2023-02-24T17:21:20.183Z,11.47
2023-02-24T17:23:47.937Z,12.53
2023-02-24T17:26:16.717Z,15.63
2023-02-24T17:28:44.674Z,14.60
2023-02-24T17:31:13.850Z,17.80
2023-02-24T17:33:42.066Z,14.97
2023-02-24T17:36:09.871Z,15.80
2023-02-24T17:38:37.947Z,13.97
2023-02-24T17:41:06.076Z,17.67
2023-02-24T17:43:33.866Z,15.17
2023-02-24T17:46:06.831Z,18.97
2023-02-24T17:48:36.401Z,17.23
2023-02-24T17:51:04.307Z,15.33
2023-02-24T17:53:32.219Z,18.17
2023-02-24T17:56:04.142Z,15.17
2023-02-24T17:58:32.615Z,15.90
2023-02-24T18:01:01.883Z,16.23
2023-02-24T18:03:30.271Z,15.87
2023-02-24T18:06:04.649Z,15.17
2023-02-24T18:08:34.612Z,15.37
2023-02-24T18:11:02.794Z,15.07
2023-02-24T18:13:31.236Z,12.87
2023-02-24T18:15:59.739Z,12.50
2023-02-24T18:18:30.165Z,13.83
2023-02-24T18:21:02.762Z,16.20
2023-02-24T18:23:30.813Z,14.93
2023-02-24T18:26:02.444Z,14.47
2023-02-24T18:28:30.510Z,21.30
2023-02-24T18:30:58.643Z,19.23
2023-02-24T18:33:26.747Z,21.83
2023-02-24T18:36:02.378Z,22.27
2023-02-24T18:38:30.511Z,18.60
2023-02-24T18:40:59.787Z,20.90
2023-02-24T18:43:27.588Z,17.30
2023-02-24T18:46:00.187Z,17.77
2023-02-24T18:48:28.305Z,18.23
2023-02-24T18:50:57.370Z,17.77
2023-02-24T18:53:29.963Z,24.63
2023-02-24T18:56:01.712Z,19.13
2023-02-24T18:58:29.806Z,18.03
2023-02-24T19:00:57.744Z,19.13
2023-02-24T19:03:25.555Z,19.17
2023-02-24T19:05:53.354Z,18.70
2023-02-24T19:08:21.158Z,21.13
2023-02-24T19:10:50.274Z,16.67
2023-02-24T19:13:18.075Z,18.73
2023-02-24T19:15:45.902Z,14.67
2023-02-24T19:18:13.924Z,17.70
2023-02-24T19:20:43.605Z,18.60
2023-02-24T19:23:11.667Z,19.50
2023-02-24T19:25:39.407Z,20.07
2023-02-24T19:28:08.517Z,14.83
2023-02-24T19:30:36.259Z,16.93
2023-02-24T19:33:04.095Z,20.07
2023-02-24T19:35:32.110Z,22.87
2023-02-24T19:37:59.903Z,24.97
2023-02-24T19:40:27.681Z,20.53
2023-02-24T19:42:55.470Z,17.60
2023-02-24T19:45:24.644Z,20.93
2023-02-24T19:47:52.475Z,19.07
2023-02-24T19:50:20.416Z,19.07
2023-02-24T19:52:48.193Z,16.43
2023-02-24T19:55:15.980Z,16.37
2023-02-24T19:57:43.767Z,16.67
2023-02-24T20:00:12.808Z,17.93
2023-02-24T20:02:41.957Z,16.77
2023-02-24T20:05:10.716Z,20.33
2023-02-24T20:07:38.634Z,16.60
2023-02-24T20:10:07.163Z,19.50
2023-02-24T20:12:34.967Z,19.13
2023-02-24T20:15:02.840Z,15.00
2023-02-24T20:17:30.651Z,15.37
2023-02-24T20:19:59.833Z,10.70
2023-02-24T20:22:27.602Z,12.40
2023-02-24T20:24:55.354Z,11.87
2023-02-24T20:27:23.126Z,7.83
2023-02-24T20:29:53.461Z,5.20
2023-02-24T20:32:23.322Z,7.97
2023-02-24T20:34:51.416Z,4.93
2023-02-24T20:37:20.623Z,9.43
2023-02-24T20:39:48.648Z,9.57
2023-02-24T20:42:16.394Z,7.83
2023-02-24T20:44:44.146Z,13.73
2023-02-24T20:47:11.903Z,9.37
2023-02-24T20:49:40.030Z,15.80
2023-02-24T20:52:07.785Z,12.53
2023-02-24T20:54:36.989Z,9.53
2023-02-24T20:57:05.080Z,13.63
2023-02-24T20:59:32.843Z,10.67
2023-02-24T21:02:00.655Z,12.87
2023-02-24T21:04:28.465Z,11.90
2023-02-24T21:06:56.679Z,12.83
2023-02-24T21:09:25.477Z,13.93
2023-02-24T21:11:54.540Z,12.40
2023-02-24T21:14:22.938Z,10.77
2023-02-24T21:16:50.707Z,13.83
2023-02-24T21:19:20.164Z,17.67
2023-02-24T21:21:48.016Z,13.73
2023-02-24T21:24:15.889Z,11.60
2023-02-24T21:26:43.659Z,13.57
2023-02-24T21:29:12.765Z,15.97
2023-02-24T21:31:40.814Z,11.60
2023-02-24T21:34:11.308Z,10.83
2023-02-24T21:36:39.354Z,12.07
2023-02-24T21:39:07.457Z,10.80
2023-02-24T21:41:36.289Z,13.10
2023-02-24T21:44:04.966Z,10.47
2023-02-24T21:46:34.355Z,12.73
2023-02-24T21:49:02.136Z,10.57
2023-02-24T21:51:30.099Z,11.40
2023-02-24T21:54:02.805Z,12.80
2023-02-24T21:56:32.249Z,11.40
2023-02-24T21:59:02.440Z,11.37
2023-02-24T22:01:31.802Z,15.60
2023-02-24T22:04:03.590Z,13.93
2023-02-24T22:06:34.257Z,10.27
2023-02-24T22:09:03.245Z,11.57
2023-02-24T22:11:34.992Z,12.57
2023-02-24T22:14:03.282Z,10.70
2023-02-24T22:16:31.182Z,12.00
2023-02-24T22:18:59.050Z,11.30
2023-02-24T22:21:30.004Z,10.80
2023-02-24T22:23:59.377Z,9.73
2023-02-24T22:26:27.933Z,10.80
2023-02-24T22:28:56.737Z,17.30
2023-02-24T22:31:26.391Z,13.10
2023-02-24T22:33:54.292Z,12.93
2023-02-24T22:36:24.998Z,12.93
2023-02-24T22:38:55.655Z,14.33
2023-02-24T22:41:26.113Z,16.43
2023-02-24T22:43:54.588Z,14.80
2023-02-24T22:46:25.246Z,16.13
2023-02-24T22:48:53.368Z,21.33
2023-02-24T22:51:21.480Z,16.27
2023-02-24T22:53:50.154Z,14.93
2023-02-24T22:56:21.250Z,17.83
2023-02-24T22:58:50.083Z,12.43
2023-02-24T23:01:19.437Z,14.13
2023-02-24T23:03:47.522Z,13.17
2023-02-24T23:06:17.280Z,16.97
2023-02-24T23:08:47.848Z,17.60
2023-02-24T23:11:18.324Z,14.87
2023-02-24T23:13:49.168Z,17.77
2023-02-24T23:16:19.354Z,15.17
2023-02-24T23:18:50.583Z,18.73
2023-02-24T23:21:22.158Z,18.40
2023-02-24T23:23:50.232Z,19.67
2023-02-24T23:26:18.574Z,21.73
2023-02-24T23:28:47.663Z,24.70
2023-02-24T23:31:20.300Z,18.40
2023-02-24T23:33:48.303Z,19.03
2023-02-24T23:36:16.760Z,18.30
2023-02-24T23:38:44.591Z,24.47
2023-02-24T23:41:13.384Z,20.60
2023-02-24T23:43:41.488Z,19.00
2023-02-24T23:46:13.293Z,18.63
2023-02-24T23:48:41.233Z,19.07
2023-02-24T23:51:13.278Z,17.67
2023-02-24T23:53:42.891Z,16.47
2023-02-24T23:56:13.896Z,20.93
2023-02-24T23:58:42.078Z,17.47
